<?xml version="1.0" encoding="UTF-8" standalone="no" ?>
<gpx xmlns="http://www.topografix.com/GPX/1/1" xmlns:xsi="http://www.w3.org/2001/XMLSchema-instance" xsi:schemaLocation="http://www.topografix.com/GPX/1/1 http://www.topografix.com/GPX/1/1/gpx.xsd" version="1.1" creator="VisuGPX - https://www.visugpx.com">
  <metadata>
    <name>trace 5</name>
  </metadata>
  <trk>
    <name><![CDATA[trace 5_3]]></name>
    <trkseg>
      <trkpt lat="48.64688" lon="-2.44727">
        <ele>93</ele>
        <time>2016-02-21T15:24:06.1Z</time>
      </trkpt>
      <trkpt lat="48.6469" lon="-2.44731">
        <ele>93</ele>
        <time>2016-02-21T15:24:09.1Z</time>
      </trkpt>
      <trkpt lat="48.64693" lon="-2.44737">
        <ele>93</ele>
        <time>2016-02-21T15:24:12.1Z</time>
      </trkpt>
      <trkpt lat="48.64695" lon="-2.44742">
        <ele>93</ele>
        <time>2016-02-21T15:24:15.1Z</time>
      </trkpt>
      <trkpt lat="48.64696" lon="-2.44746">
        <ele>93</ele>
        <time>2016-02-21T15:24:17.1Z</time>
      </trkpt>
      <trkpt lat="48.64698" lon="-2.44753">
        <ele>92</ele>
        <time>2016-02-21T15:24:20.1Z</time>
      </trkpt>
      <trkpt lat="48.64698" lon="-2.44756">
        <ele>92</ele>
        <time>2016-02-21T15:24:22.1Z</time>
      </trkpt>
      <trkpt lat="48.64699" lon="-2.44762">
        <ele>92</ele>
        <time>2016-02-21T15:24:25.1Z</time>
      </trkpt>
      <trkpt lat="48.647" lon="-2.44765">
        <ele>91</ele>
        <time>2016-02-21T15:24:27.1Z</time>
      </trkpt>
      <trkpt lat="48.647" lon="-2.4477">
        <ele>91</ele>
        <time>2016-02-21T15:24:30.1Z</time>
      </trkpt>
      <trkpt lat="48.64701" lon="-2.44775">
        <ele>91</ele>
        <time>2016-02-21T15:24:33.1Z</time>
      </trkpt>
      <trkpt lat="48.64702" lon="-2.44779">
        <ele>91</ele>
        <time>2016-02-21T15:24:36.1Z</time>
      </trkpt>
      <trkpt lat="48.64703" lon="-2.44783">
        <ele>91</ele>
        <time>2016-02-21T15:24:39.1Z</time>
      </trkpt>
      <trkpt lat="48.64704" lon="-2.44787">
        <ele>91</ele>
        <time>2016-02-21T15:24:42.1Z</time>
      </trkpt>
      <trkpt lat="48.64706" lon="-2.4479">
        <ele>91</ele>
        <time>2016-02-21T15:24:44.1Z</time>
      </trkpt>
      <trkpt lat="48.64708" lon="-2.44794">
        <ele>91</ele>
        <time>2016-02-21T15:24:47.1Z</time>
      </trkpt>
      <trkpt lat="48.64711" lon="-2.44798">
        <ele>90</ele>
        <time>2016-02-21T15:24:50.1Z</time>
      </trkpt>
      <trkpt lat="48.64713" lon="-2.44801">
        <ele>90</ele>
        <time>2016-02-21T15:24:52.1Z</time>
      </trkpt>
      <trkpt lat="48.64714" lon="-2.44804">
        <ele>90</ele>
        <time>2016-02-21T15:24:54.1Z</time>
      </trkpt>
      <trkpt lat="48.64716" lon="-2.4481">
        <ele>90</ele>
        <time>2016-02-21T15:24:57.1Z</time>
      </trkpt>
      <trkpt lat="48.64718" lon="-2.44813">
        <ele>90</ele>
        <time>2016-02-21T15:24:59.1Z</time>
      </trkpt>
      <trkpt lat="48.64721" lon="-2.44817">
        <ele>89</ele>
        <time>2016-02-21T15:25:02.1Z</time>
      </trkpt>
      <trkpt lat="48.64723" lon="-2.44823">
        <ele>89</ele>
        <time>2016-02-21T15:25:05.1Z</time>
      </trkpt>
      <trkpt lat="48.64724" lon="-2.44826">
        <ele>89</ele>
        <time>2016-02-21T15:25:07.1Z</time>
      </trkpt>
      <trkpt lat="48.64726" lon="-2.4483">
        <ele>90</ele>
        <time>2016-02-21T15:25:10.1Z</time>
      </trkpt>
      <trkpt lat="48.64727" lon="-2.44832">
        <ele>90</ele>
        <time>2016-02-21T15:25:12.1Z</time>
      </trkpt>
      <trkpt lat="48.64729" lon="-2.44834">
        <ele>89</ele>
        <time>2016-02-21T15:25:14.1Z</time>
      </trkpt>
    </trkseg>
  </trk>
</gpx>